Venice, CA (90291)

11:23 AM PST on December 25, 2014 (GMT -0800)
Abbot Kinney | Change Station
CLOSE
Current Station
Personal Weather Station
Location: Venice, CA
Elevation: 20 ft
Nearby Weather Stations
Active Advisory: High Surf Advisory Active Notice: Public Information Statement

Elev 20 ft 33.99 °N, 118.47 °W | Updated 23 seconds ago

Clear
Clear
62.3 °F
Feels Like 62.3 °F
N
17.0
Wind Variable Wind from NNE
Gusts 19.0 mph

Today
High -- | Low -- °F
--% Chance of Precip.
Yesterday
High -- | Low -- °F
Precip. -- in
6:57 AM 4:50 PM
Waxing Crescent, 18% visible
Pressure 29.90 in
Visibility 10.0 miles
Clouds Clear
Dew Point 29 °F
Humidity 28%
Rainfall 0.00 in
Snow Depth Not available.
UV 2.0 out of 12
Pollen 6.60 out of 12
Air Quality Not available.
Flu Activity Not available.
METAR KSMO 251851Z 35010G24KT 10SM CLR 17/M04 A2990 RMK AO2 SLP125 T01671044

More Conditions Fewer Conditions

Pressure 29.90 in
Visibility 10.0 miles
Clouds Clear
Dew Point 29 °F
Humidity 28%
Rainfall 0.00 in
Snow Depth Not available.
UV 2.0 out of 12
Pollen 6.60 out of 12
Air Quality Not available.
Flu Activity Not available.
METAR KSMO 251851Z 35010G24KT 10SM CLR 17/M04 A2990 RMK AO2 SLP125 T01671044

More Conditions Fewer Conditions

10-Day Weather Forecast

Almanac

Astronomy

Dec. 25, 2014 Rise Set
Actual Time
Civil Twilight
Nautical Twilight
Astronomical Twilight
Moon
Length of Visible Light
Length of Day
Tomorrow will be .
, % of the Moon is Illuminated

Today's Extremes

State Highs State Lows

Community

WunderPhotos

Upload Photos

1,780,368 photos uploaded!

WunderBlogs® & News

Nearby

Air Quality

  Air Quality AQ Index Pollutant
Not available.

Snow Depth

Station Depth Elevation

Earthquake Activity

City Distance Mag. Time & Date
Minimum magnitude displayed is 2.5.

Coastal Water Temperatures

Place Temperature

Nearby Weather Stations